Terminal Aerodrome Forecast
Issued by NWS

Home | Current Version | Previous Version | Graphics & Text | Print | Product List | Glossary On
Versions: 1 2 3 4 5 6 7 8 9 10 11 12 13 14 15 16 17 18 19 20 21 22 23 24 25 26 27 28 29 30 31 32 33 34 35
000
FTUS43 KGRB 172300
TAFRHI
TAF
KRHI 172328Z 1800/1824 30007KT P6SM -SN OVC010
      TEMPO 1800/1803 P6SM NSW SCT010 BKN020
     FM180300 01003KT P6SM BKN020
     FM180800 02002KT P6SM BKN250=

USA.gov is the U.S. government's official web portal to all federal, state and local government web resources and services.